createdAt,value
2022-11-24T00:01:18.521Z,39403.47
2022-11-24T00:03:52.152Z,39387.53
2022-11-24T00:06:19.320Z,39403.47
2022-11-24T00:08:46.959Z,39405.47
2022-11-24T00:11:16.948Z,39405.47
2022-11-24T00:13:44.929Z,39377.56
2022-11-24T00:16:16.689Z,39355.63
2022-11-24T00:18:46.344Z,39373.56
2022-11-24T00:21:15.484Z,39371.56
2022-11-24T00:23:44.203Z,39357.63
2022-11-24T00:26:22.758Z,39341.66
2022-11-24T00:28:51.861Z,39381.53
2022-11-24T00:31:28.888Z,39403.47
2022-11-24T00:33:58.719Z,39445.34
2022-11-24T00:36:29.324Z,39419.44
2022-11-24T00:38:58.623Z,39469.28
2022-11-24T00:41:27.411Z,39555.03
2022-11-24T00:43:56.916Z,39519.13
2022-11-24T00:46:27.002Z,39584.94
2022-11-24T00:48:54.764Z,39614.84
2022-11-24T00:51:27.929Z,39636.78
2022-11-24T00:53:56.483Z,39710.56
2022-11-24T00:56:24.709Z,39738.47
2022-11-24T00:58:52.594Z,39760.41
2022-11-24T01:01:23.163Z,39850.16
2022-11-24T01:03:55.095Z,39949.88
2022-11-24T01:06:27.981Z,40035.63
2022-11-24T01:08:56.967Z,40111.41
2022-11-24T01:11:50.962Z,40257.00
2022-11-24T01:14:18.703Z,40440.50
2022-11-24T01:16:46.122Z,40452.47
2022-11-24T01:19:13.531Z,40484.38
2022-11-24T01:21:40.820Z,40494.38
2022-11-24T01:24:07.982Z,40496.34
2022-11-24T01:26:37.976Z,40528.28
2022-11-24T01:29:05.330Z,40506.34
2022-11-24T01:31:33.208Z,40526.28
2022-11-24T01:34:00.496Z,40532.25
2022-11-24T01:36:27.525Z,40634.00
2022-11-24T01:38:54.674Z,40639.97
2022-11-24T01:41:24.228Z,40620.03
2022-11-24T01:43:53.141Z,40691.84
2022-11-24T01:46:23.378Z,40707.78
2022-11-24T01:49:08.913Z,40743.69
2022-11-24T01:51:39.427Z,40847.44
2022-11-24T01:54:15.210Z,40851.41
2022-11-24T01:56:46.793Z,40849.44
2022-11-24T01:59:20.448Z,40887.34
2022-11-24T02:01:51.391Z,40869.38
2022-11-24T02:04:24.168Z,40945.19
2022-11-24T02:06:54.231Z,41007.03
2022-11-24T02:09:32.403Z,41030.97
2022-11-24T02:12:01.028Z,41148.66
2022-11-24T02:14:28.557Z,41130.72
2022-11-24T02:16:55.748Z,41124.72
2022-11-24T02:19:41.254Z,41070.88
2022-11-24T02:22:18.602Z,41130.72
2022-11-24T02:25:03.525Z,41086.81
2022-11-24T02:27:33.052Z,41138.69
2022-11-24T02:30:00.224Z,41070.88
2022-11-24T02:32:28.370Z,41032.97
2022-11-24T02:35:04.301Z,41026.97
2022-11-24T02:37:31.508Z,41011.00
2022-11-24T02:40:00.982Z,40983.09
2022-11-24T02:42:36.013Z,40955.16
2022-11-24T02:45:06.356Z,41136.69
2022-11-24T02:47:33.459Z,41126.72
2022-11-24T02:50:01.124Z,40492.38
2022-11-24T02:52:28.833Z,40897.31
2022-11-24T02:54:55.972Z,41038.94
2022-11-24T02:57:23.431Z,41046.94
2022-11-24T02:59:50.987Z,41038.94
2022-11-24T03:02:18.205Z,41003.03
2022-11-24T03:04:45.783Z,41068.88
2022-11-24T03:07:12.938Z,40999.03
2022-11-24T03:09:40.652Z,41015.00
2022-11-24T03:12:08.032Z,41005.03
2022-11-24T03:14:35.542Z,41003.03
2022-11-24T03:17:04.117Z,41026.97
2022-11-24T03:19:31.559Z,41098.78
2022-11-24T03:21:59.521Z,41084.81
2022-11-24T03:24:26.729Z,41176.59
2022-11-24T03:26:54.229Z,41174.59
2022-11-24T03:29:22.429Z,41190.56
2022-11-24T03:31:52.187Z,41174.59
2022-11-24T03:34:19.639Z,41090.81
2022-11-24T03:36:48.269Z,41106.78
2022-11-24T03:39:15.922Z,41042.94
2022-11-24T03:41:43.063Z,40855.41
2022-11-24T03:44:12.761Z,40789.59
2022-11-24T03:46:39.863Z,40592.09
2022-11-24T03:49:10.130Z,40384.66
2022-11-24T03:51:37.304Z,40280.94
2022-11-24T03:54:04.686Z,40129.38
2022-11-24T03:56:31.804Z,40065.53
2022-11-24T03:58:59.089Z,40029.66
2022-11-24T04:01:26.571Z,39937.91
2022-11-24T04:03:53.781Z,39977.78
2022-11-24T04:06:23.714Z,39999.72
2022-11-24T04:08:50.845Z,39957.84
2022-11-24T04:11:44.485Z,39828.22
2022-11-24T04:14:13.773Z,39774.38
2022-11-24T04:16:41.659Z,39706.56
2022-11-24T04:19:09.076Z,39690.63
2022-11-24T04:21:36.483Z,39862.13
2022-11-24T04:24:05.871Z,39935.91
2022-11-24T04:26:33.288Z,39896.03
2022-11-24T04:29:02.904Z,39818.25
2022-11-24T04:31:30.071Z,39856.13
2022-11-24T04:33:57.275Z,39886.06
2022-11-24T04:36:26.771Z,39983.78
2022-11-24T04:39:23.501Z,40109.41
2022-11-24T04:41:47.326Z,39959.84
2022-11-24T04:44:14.449Z,39812.28
2022-11-24T04:46:41.626Z,39778.38
2022-11-24T04:49:11.692Z,39748.44
2022-11-24T04:51:39.844Z,39722.53
2022-11-24T04:54:09.655Z,39770.38
2022-11-24T04:56:37.482Z,39726.50
2022-11-24T04:59:08.424Z,39379.56
2022-11-24T05:01:35.976Z,39321.72
2022-11-24T05:04:03.579Z,39313.75
2022-11-24T05:06:30.879Z,39381.53
2022-11-24T05:08:58.270Z,39405.47
2022-11-24T05:11:25.578Z,39431.38
2022-11-24T05:13:54.100Z,39483.25
2022-11-24T05:16:21.277Z,39549.03
2022-11-24T05:18:50.068Z,39600.88
2022-11-24T05:21:19.664Z,39654.72
2022-11-24T05:23:46.924Z,39726.50
2022-11-24T05:26:14.459Z,39848.16
2022-11-24T05:28:41.736Z,39993.75
2022-11-24T05:31:09.213Z,40284.94
2022-11-24T05:33:37.362Z,40737.72
2022-11-24T05:36:07.480Z,40855.41
2022-11-24T05:38:35.658Z,41074.84
2022-11-24T05:41:05.147Z,41232.47
2022-11-24T05:43:32.679Z,41515.78
2022-11-24T05:46:01.367Z,41699.34
2022-11-24T05:48:29.225Z,41986.69
2022-11-24T05:50:58.258Z,42331.94
2022-11-24T05:53:27.127Z,42627.31
2022-11-24T05:55:54.404Z,41922.81
2022-11-24T05:58:21.940Z,42016.63
2022-11-24T06:00:49.235Z,42667.22
2022-11-24T06:03:16.879Z,43665.34
2022-11-24T06:05:48.452Z,44440.06
2022-11-24T06:08:18.147Z,43427.75
2022-11-24T06:10:45.362Z,44561.88
2022-11-24T06:13:12.487Z,45113.13
2022-11-24T06:15:40.871Z,45418.72
2022-11-24T06:18:07.984Z,45432.72
2022-11-24T06:20:37.876Z,45716.38
2022-11-24T06:23:05.400Z,45952.13
2022-11-24T06:25:34.180Z,46002.06
2022-11-24T06:28:03.953Z,46052.00
2022-11-24T06:30:31.209Z,46161.91
2022-11-24T06:32:58.474Z,46161.91
2022-11-24T06:35:28.278Z,46563.53
2022-11-24T06:37:55.508Z,46573.50
2022-11-24T06:40:23.022Z,46613.47
2022-11-24T06:42:51.692Z,46753.38
2022-11-24T06:45:18.985Z,46797.31
2022-11-24T06:47:46.224Z,46319.75
2022-11-24T06:50:13.707Z,46253.81
2022-11-24T06:52:40.845Z,45810.28
2022-11-24T06:55:08.619Z,45932.13
2022-11-24T06:57:38.181Z,46183.88
2022-11-24T07:00:08.293Z,46243.81
2022-11-24T07:02:42.534Z,46527.56
2022-11-24T07:05:12.808Z,46629.47
2022-11-24T07:07:40.076Z,46811.31
2022-11-24T07:10:09.732Z,47262.97
2022-11-24T07:12:36.965Z,47554.78
2022-11-24T07:15:04.568Z,47620.75
2022-11-24T07:17:31.891Z,47792.66
2022-11-24T07:20:01.596Z,47920.59
2022-11-24T07:22:28.751Z,47986.56
2022-11-24T07:24:58.225Z,48344.41
2022-11-24T07:27:27.620Z,48550.34
2022-11-24T07:29:57.713Z,49048.25
2022-11-24T07:32:24.890Z,49122.22
2022-11-24T07:34:54.698Z,49744.22
2022-11-24T07:37:24.517Z,49896.22
2022-11-24T07:39:55.597Z,50064.25
2022-11-24T07:42:22.894Z,50188.28
2022-11-24T07:44:50.169Z,50052.25
2022-11-24T07:47:19.590Z,49880.22
2022-11-24T07:49:47.529Z,50086.25
2022-11-24T07:52:14.842Z,50564.38
2022-11-24T07:54:42.087Z,50930.50
2022-11-24T07:57:09.238Z,51224.63
2022-11-24T07:59:36.460Z,51586.81
2022-11-24T08:02:04.130Z,51524.78
2022-11-24T08:04:31.588Z,51859.00
2022-11-24T08:06:59.195Z,52223.28
2022-11-24T08:09:26.363Z,52775.75
2022-11-24T08:11:53.652Z,53104.09
2022-11-24T08:14:20.844Z,52927.91
2022-11-24T08:16:49.838Z,53378.38
2022-11-24T08:19:17.222Z,53250.25
2022-11-24T08:21:44.439Z,53758.84
2022-11-24T08:24:15.372Z,54285.53
2022-11-24T08:26:43.092Z,54083.25
2022-11-24T08:29:10.515Z,53826.91
2022-11-24T08:31:39.528Z,53826.91
2022-11-24T08:34:06.966Z,54339.59
2022-11-24T08:36:34.530Z,54083.25
2022-11-24T08:39:02.557Z,53098.06
2022-11-24T08:41:30.598Z,54083.25
2022-11-24T08:43:58.279Z,55108.78
2022-11-24T08:46:25.525Z,55621.66
2022-11-24T08:48:54.420Z,55108.78
2022-11-24T08:51:24.210Z,55108.78
2022-11-24T08:53:55.832Z,55108.78
2022-11-24T08:56:25.342Z,53570.59
2022-11-24T08:58:53.580Z,52981.97
2022-11-24T09:01:21.337Z,53570.59
2022-11-24T09:03:51.793Z,53826.91
2022-11-24T09:06:24.741Z,54339.59
2022-11-24T09:08:54.696Z,53826.91
2022-11-24T09:11:22.266Z,54563.94
2022-11-24T09:13:50.447Z,54595.97
2022-11-24T09:16:20.414Z,55108.78
2022-11-24T09:18:59.532Z,54595.97
2022-11-24T09:21:27.601Z,57160.78
2022-11-24T09:23:55.094Z,58700.59
2022-11-24T09:26:26.342Z,58187.25
2022-11-24T09:28:58.116Z,58957.28
2022-11-24T09:31:27.744Z,59984.28
2022-11-24T09:33:55.753Z,60497.91
2022-11-24T09:36:24.237Z,60497.91
2022-11-24T09:38:54.104Z,60754.75
2022-11-24T09:41:24.501Z,61268.47
2022-11-24T09:44:07.820Z,61268.47
2022-11-24T09:46:57.159Z,61268.47
2022-11-24T09:49:55.652Z,62039.22
2022-11-24T09:52:45.041Z,63067.16
2022-11-24T09:55:31.527Z,65123.97
2022-11-24T09:58:26.288Z,65381.16
2022-11-24T10:01:04.470Z,65638.38
2022-11-24T10:03:45.022Z,65381.16
2022-11-24T10:07:07.246Z,64609.66
2022-11-24T10:10:12.488Z,65123.97
2022-11-24T10:13:25.402Z,64352.53
2022-11-24T10:16:01.592Z,65123.97
2022-11-24T10:18:56.708Z,65123.97
2022-11-24T10:21:34.806Z,64352.53
2022-11-24T10:24:18.737Z,61525.38
2022-11-24T10:27:13.753Z,58957.28
2022-11-24T10:29:42.379Z,57673.97
2022-11-24T10:32:19.192Z,55621.66
2022-11-24T10:34:51.491Z,55365.22
2022-11-24T10:37:21.606Z,55365.22
2022-11-24T10:40:33.355Z,53078.06
2022-11-24T10:43:05.471Z,50570.38
2022-11-24T10:45:32.734Z,44751.63
2022-11-24T10:48:03.168Z,42862.81
2022-11-24T10:50:38.065Z,43198.19
2022-11-24T10:53:16.109Z,41447.94
2022-11-24T10:55:55.979Z,40556.19
2022-11-24T10:58:37.614Z,41290.31
2022-11-24T11:01:14.692Z,41013.00
2022-11-24T11:03:48.109Z,41015.00
2022-11-24T11:06:22.486Z,41410.03
2022-11-24T11:08:49.665Z,42607.34
2022-11-24T11:11:16.821Z,43565.50
2022-11-24T11:13:58.156Z,44160.50
2022-11-24T11:16:32.161Z,43906.91
2022-11-24T11:19:01.554Z,44054.69
2022-11-24T11:21:35.284Z,43449.72
2022-11-24T11:24:12.670Z,43335.94
2022-11-24T11:26:41.579Z,42924.72
2022-11-24T11:35:04.734Z,42623.31
2022-11-24T11:37:33.562Z,42609.34
2022-11-24T11:40:03.574Z,42415.75
2022-11-24T11:43:01.253Z,42130.38
2022-11-24T11:45:34.918Z,45151.06
2022-11-24T11:48:02.783Z,47197.03
2022-11-24T11:51:21.227Z,55878.13
2022-11-24T11:53:56.479Z,61011.59
2022-11-24T11:56:40.583Z,60754.75
2022-11-24T11:59:29.859Z,59727.50
2022-11-24T12:02:18.691Z,56134.63
2022-11-24T12:05:02.196Z,51320.69
2022-11-24T12:07:41.895Z,46945.22
2022-11-24T12:10:41.435Z,44835.50
2022-11-24T12:13:17.705Z,43329.94
2022-11-24T12:15:55.117Z,42335.91
2022-11-24T12:21:49.654Z,40803.53
2022-11-24T12:24:28.365Z,40424.56
2022-11-24T12:27:10.274Z,40153.31
2022-11-24T12:30:08.174Z,40007.72
2022-11-24T12:32:47.316Z,40045.59
2022-11-24T12:35:30.395Z,39810.28
2022-11-24T12:38:03.330Z,39742.47
2022-11-24T12:40:30.413Z,39702.59
2022-11-24T12:43:23.311Z,39708.56
2022-11-24T12:46:18.081Z,39732.50
2022-11-24T12:49:06.940Z,39730.50
2022-11-24T12:51:42.793Z,39726.50
2022-11-24T12:54:17.859Z,39766.41
2022-11-24T12:56:59.972Z,39758.44
2022-11-24T12:59:51.960Z,39770.38
2022-11-24T13:02:34.688Z,39810.28
2022-11-24T13:05:26.981Z,39894.03
2022-11-24T13:07:57.905Z,40039.63
2022-11-24T13:10:53.663Z,40123.38
2022-11-24T13:13:14.642Z,40306.88
2022-11-24T13:19:12.980Z,40823.50
2022-11-24T13:21:45.827Z,40919.25
2022-11-24T13:24:19.975Z,41140.69
2022-11-24T13:26:49.018Z,41324.22
2022-11-24T13:29:31.367Z,41126.72
2022-11-24T13:32:22.176Z,41242.44
2022-11-24T13:34:55.309Z,41340.19
2022-11-24T13:37:31.541Z,41833.03
2022-11-24T13:40:31.393Z,42006.63
2022-11-24T13:43:01.201Z,41984.69
2022-11-24T13:45:42.803Z,41837.03
2022-11-24T13:48:22.321Z,42004.63
2022-11-24T13:50:50.134Z,42182.25
2022-11-24T13:53:49.810Z,41755.22
2022-11-24T13:56:17.136Z,41729.28
2022-11-24T13:58:59.842Z,41693.34
2022-11-24T14:01:34.683Z,41998.66
2022-11-24T14:06:51.885Z,41839.00
2022-11-24T14:09:27.902Z,42250.09
2022-11-24T14:12:16.458Z,42737.09
2022-11-24T14:14:45.897Z,42180.25
2022-11-24T14:17:13.017Z,41940.78
2022-11-24T14:19:44.709Z,41783.16
2022-11-24T14:22:17.984Z,41894.88
2022-11-24T14:24:45.700Z,41775.16
2022-11-24T14:27:16.411Z,42002.66
2022-11-24T14:29:57.449Z,41831.03
2022-11-24T14:32:24.926Z,41962.75
2022-11-24T14:34:54.433Z,42300.00
2022-11-24T14:37:21.849Z,42276.03
2022-11-24T14:39:49.159Z,42096.44
2022-11-24T14:42:23.514Z,42627.31
2022-11-24T14:45:05.070Z,42559.44
2022-11-24T14:47:41.477Z,42583.41
2022-11-24T14:50:16.522Z,42661.22
2022-11-24T14:52:54.277Z,42711.13
2022-11-24T14:55:32.427Z,42890.78
2022-11-24T14:58:00.238Z,42878.78
2022-11-24T15:00:32.886Z,43104.34
2022-11-24T15:03:19.800Z,43477.66
2022-11-24T15:05:53.725Z,43042.47
2022-11-24T15:08:22.463Z,42429.72
2022-11-24T15:10:57.566Z,43130.31
2022-11-24T15:13:29.178Z,43483.66
2022-11-24T15:16:02.835Z,43938.88
2022-11-24T15:18:35.967Z,43671.31
2022-11-24T15:21:03.515Z,43773.16
2022-11-24T15:23:35.329Z,42806.94
2022-11-24T15:26:02.507Z,42128.38
2022-11-24T15:28:33.416Z,41823.06
2022-11-24T15:31:03.352Z,41984.69
2022-11-24T15:33:36.168Z,42371.84
2022-11-24T15:36:03.991Z,41346.19
2022-11-24T15:38:33.788Z,39840.19
2022-11-24T15:41:01.863Z,39455.31
2022-11-24T15:43:39.003Z,39299.78
2022-11-24T15:46:07.979Z,39299.78
2022-11-24T15:48:37.580Z,39259.91
2022-11-24T15:51:10.205Z,39303.78
2022-11-24T15:53:47.038Z,39315.75
2022-11-24T15:56:20.703Z,39329.69
2022-11-24T15:58:48.583Z,39347.66
2022-11-24T16:01:15.883Z,39331.69
2022-11-24T16:03:48.386Z,39331.69
2022-11-24T16:06:25.083Z,39283.84
2022-11-24T16:08:56.425Z,39323.72
2022-11-24T16:11:23.668Z,39279.84
2022-11-24T16:13:54.619Z,39295.81
2022-11-24T16:16:23.322Z,39303.78
2022-11-24T16:18:53.117Z,39239.97
2022-11-24T16:21:20.280Z,39257.91
2022-11-24T16:23:48.678Z,39212.06
2022-11-24T16:26:19.861Z,39232.00
2022-11-24T16:28:47.462Z,39259.91
2022-11-24T16:31:16.572Z,39249.94
2022-11-24T16:33:48.345Z,39283.84
2022-11-24T16:36:18.288Z,39267.88
2022-11-24T16:38:45.705Z,39317.72
2022-11-24T16:41:14.211Z,39369.56
2022-11-24T16:43:42.185Z,39417.44
2022-11-24T16:46:09.443Z,39475.25
2022-11-24T16:48:37.161Z,39521.13
2022-11-24T16:51:10.033Z,39511.16
2022-11-24T16:53:38.343Z,39531.09
2022-11-24T16:56:06.011Z,39511.16
2022-11-24T16:58:36.405Z,39525.13
2022-11-24T17:01:04.843Z,39547.03
2022-11-24T17:03:33.587Z,39594.91
2022-11-24T17:06:01.326Z,39628.81
2022-11-24T17:08:32.131Z,39692.63
2022-11-24T17:11:18.309Z,39778.38
2022-11-24T17:13:49.354Z,39882.06
2022-11-24T17:16:19.421Z,39908.00
2022-11-24T17:18:47.586Z,39913.97
2022-11-24T17:21:17.452Z,40033.63
2022-11-24T17:23:47.461Z,40063.56
2022-11-24T17:26:17.511Z,40270.97
2022-11-24T17:28:45.077Z,40498.34
2022-11-24T17:31:20.109Z,40502.34
2022-11-24T17:33:50.903Z,40508.31
2022-11-24T17:36:18.086Z,40630.00
2022-11-24T17:38:49.565Z,40961.13
2022-11-24T17:41:20.082Z,41186.56
2022-11-24T17:43:55.848Z,41541.72
2022-11-24T17:46:24.506Z,41565.66
2022-11-24T17:48:52.149Z,41669.41
2022-11-24T17:51:21.340Z,41711.31
2022-11-24T17:53:55.234Z,41843.00
2022-11-24T17:56:40.653Z,42479.63
2022-11-24T17:59:24.361Z,42545.47
2022-11-24T18:08:37.234Z,40937.19
2022-11-24T18:11:20.007Z,40328.81
2022-11-24T18:14:01.186Z,40021.66
2022-11-24T18:16:47.193Z,39766.41
2022-11-24T18:19:17.612Z,39507.16
2022-11-24T18:22:14.028Z,39636.78
2022-11-24T18:24:44.345Z,39698.59
2022-11-24T18:27:12.603Z,39728.50
2022-11-24T18:29:43.040Z,39826.22
2022-11-24T18:32:10.392Z,39890.03
2022-11-24T18:34:37.816Z,39872.09
2022-11-24T18:37:05.033Z,39951.88
2022-11-24T18:39:34.592Z,39975.81
2022-11-24T18:42:01.801Z,40961.13
2022-11-24T18:44:28.936Z,42136.34
2022-11-24T18:46:56.495Z,42088.47
2022-11-24T18:49:25.916Z,42178.25
2022-11-24T18:51:53.112Z,42194.22
2022-11-24T18:54:20.266Z,42511.53
2022-11-24T18:56:47.380Z,42541.47
2022-11-24T18:59:14.536Z,42715.13
2022-11-24T19:01:41.847Z,42934.69
2022-11-24T19:04:09.781Z,43138.28
2022-11-24T19:06:37.980Z,43226.13
2022-11-24T19:09:18.646Z,43118.34
2022-11-24T19:11:46.920Z,43154.25
2022-11-24T19:14:18.659Z,43134.31
2022-11-24T19:16:50.805Z,43194.19
2022-11-24T19:19:18.261Z,43132.31
2022-11-24T19:21:46.495Z,43294.00
2022-11-24T19:24:13.770Z,43507.63
2022-11-24T19:26:43.563Z,43523.59
2022-11-24T19:29:13.192Z,43423.75
2022-11-24T19:31:40.500Z,43266.06
2022-11-24T19:34:08.520Z,43282.03
2022-11-24T19:36:36.287Z,41958.75
2022-11-24T19:39:05.181Z,41687.38
2022-11-24T19:41:33.494Z,42765.03
2022-11-24T19:44:00.937Z,42910.72
2022-11-24T19:46:29.632Z,42870.81
2022-11-24T19:49:01.723Z,42910.72
2022-11-24T19:51:32.033Z,42986.59
2022-11-24T19:54:00.072Z,42715.13
2022-11-24T19:56:32.142Z,42711.13
2022-11-24T19:58:59.702Z,42499.56
2022-11-24T20:01:30.076Z,42541.47
2022-11-24T20:04:12.430Z,42449.69
2022-11-24T20:06:46.314Z,42317.97
2022-11-24T20:09:16.922Z,42230.16
2022-11-24T20:11:45.029Z,42026.59
2022-11-24T20:14:14.134Z,41831.03
2022-11-24T20:16:41.536Z,41856.97
2022-11-24T20:19:12.124Z,41613.53
2022-11-24T20:21:40.396Z,41392.06
2022-11-24T20:24:19.566Z,41178.59
2022-11-24T20:26:50.008Z,41038.94
2022-11-24T20:29:18.257Z,40869.38
2022-11-24T20:31:47.986Z,40719.75
2022-11-24T20:34:16.233Z,40586.13
2022-11-24T20:36:45.706Z,40510.31
2022-11-24T20:39:19.857Z,40466.44
2022-11-24T20:41:47.429Z,40528.28
2022-11-24T20:44:16.665Z,40522.28
2022-11-24T20:46:45.325Z,40536.25
2022-11-24T20:49:15.661Z,40634.00
2022-11-24T20:51:48.281Z,40490.38
2022-11-24T20:54:17.615Z,40492.38
2022-11-24T20:56:46.739Z,40432.53
2022-11-24T20:59:23.106Z,40430.53
2022-11-24T21:01:51.432Z,40430.53
2022-11-24T21:04:22.567Z,40484.38
2022-11-24T21:06:50.241Z,40400.63
2022-11-24T21:09:18.280Z,40318.84
2022-11-24T21:11:46.158Z,40306.88
2022-11-24T21:14:13.407Z,40324.81
2022-11-24T21:16:42.104Z,40255.00
2022-11-24T21:19:18.703Z,40298.91
2022-11-24T21:21:47.621Z,40213.13
2022-11-24T21:24:17.493Z,40167.25
2022-11-24T21:26:48.190Z,40127.38
2022-11-24T21:29:18.868Z,40179.22
2022-11-24T21:31:46.457Z,40139.34
2022-11-24T21:34:16.925Z,40217.13
2022-11-24T21:36:45.155Z,40249.03
2022-11-24T21:39:16.488Z,40183.22
2022-11-24T21:41:44.067Z,40105.44
2022-11-24T21:44:13.093Z,40089.47
2022-11-24T21:46:48.296Z,40079.50
2022-11-24T21:49:20.031Z,40039.63
2022-11-24T21:51:47.474Z,39971.81
2022-11-24T21:54:14.623Z,39880.06
2022-11-24T21:56:41.790Z,39902.00
2022-11-24T21:59:13.961Z,39882.06
2022-11-24T22:01:41.239Z,39981.78
2022-11-24T22:04:09.542Z,39945.88
2022-11-24T22:06:37.044Z,39906.00
2022-11-24T22:09:06.523Z,39919.97
2022-11-24T22:11:33.807Z,39953.88
2022-11-24T22:14:01.287Z,39915.97
2022-11-24T22:16:28.573Z,40005.72
2022-11-24T22:18:56.146Z,40025.66
2022-11-24T22:21:25.764Z,39957.84
2022-11-24T22:23:53.314Z,39947.88
2022-11-24T22:26:22.379Z,39856.13
2022-11-24T22:28:50.200Z,39802.28
2022-11-24T22:31:19.809Z,39766.41
2022-11-24T22:33:47.894Z,39694.59
2022-11-24T22:36:17.033Z,39670.69
2022-11-24T22:38:46.907Z,39686.63
2022-11-24T22:41:16.817Z,39708.56
2022-11-24T22:43:45.496Z,39638.78
2022-11-24T22:46:15.135Z,39642.75
2022-11-24T22:48:43.061Z,39668.69
2022-11-24T22:51:15.389Z,39628.81
2022-11-24T22:53:51.243Z,39646.75
2022-11-24T22:56:19.915Z,39576.97
2022-11-24T22:58:48.248Z,39598.91
2022-11-24T23:01:23.966Z,39565.00
2022-11-24T23:03:54.733Z,39525.13
2022-11-24T23:06:24.699Z,39626.81
2022-11-24T23:08:54.880Z,39650.75
2022-11-24T23:11:31.595Z,39616.84
2022-11-24T23:14:02.638Z,39561.00
2022-11-24T23:16:32.717Z,39543.06
2022-11-24T23:19:00.004Z,39517.13
2022-11-24T23:21:31.838Z,39523.13
2022-11-24T23:24:00.653Z,39523.13
2022-11-24T23:26:33.632Z,39507.16
2022-11-24T23:29:01.209Z,39495.19
2022-11-24T23:31:31.846Z,39473.25
2022-11-24T23:34:03.214Z,39449.34
2022-11-24T23:36:31.182Z,39425.41
2022-11-24T23:39:06.839Z,39455.31
2022-11-24T23:41:35.040Z,39495.19
2022-11-24T23:44:02.222Z,39491.22
2022-11-24T23:46:29.384Z,39473.25
2022-11-24T23:48:56.937Z,39467.28
2022-11-24T23:51:32.071Z,39451.34
2022-11-24T23:54:00.297Z,39439.38
2022-11-24T23:56:33.126Z,39445.34
2022-11-24T23:59:04.593Z,39431.38
